createdAt,value
2018-10-18T00:00:23.994Z,23.00
2018-10-18T00:02:53.206Z,23.93
2018-10-18T00:05:22.505Z,23.17
2018-10-18T00:07:51.779Z,24.60
2018-10-18T00:10:21.069Z,22.80
2018-10-18T00:12:50.401Z,22.97
2018-10-18T00:15:19.669Z,23.30
2018-10-18T00:17:48.866Z,24.27
2018-10-18T00:20:18.462Z,23.70
2018-10-18T00:22:48.370Z,24.07
2018-10-18T00:25:17.985Z,24.30
2018-10-18T00:27:47.121Z,23.47
2018-10-18T00:30:16.691Z,22.70
2018-10-18T00:32:46.410Z,22.20
2018-10-18T00:35:15.630Z,21.77
2018-10-18T00:37:44.818Z,23.10
2018-10-18T00:40:14.017Z,23.17
2018-10-18T00:42:43.531Z,22.43
2018-10-18T00:45:12.795Z,23.73
2018-10-18T00:47:42.017Z,23.00
2018-10-18T00:50:12.024Z,25.80
2018-10-18T00:52:41.286Z,23.93
2018-10-18T00:55:11.514Z,23.00
2018-10-18T00:57:41.734Z,24.73
2018-10-18T01:00:11.858Z,23.43
2018-10-18T01:02:41.057Z,23.67
2018-10-18T01:05:10.325Z,22.63
2018-10-18T01:07:39.561Z,23.37
2018-10-18T01:10:08.874Z,22.93
2018-10-18T01:12:38.015Z,21.53
2018-10-18T01:15:07.945Z,24.13
2018-10-18T01:17:37.713Z,23.83
2018-10-18T01:20:07.202Z,20.53
2018-10-18T01:22:36.634Z,23.20
2018-10-18T01:25:06.500Z,23.43
2018-10-18T01:27:35.839Z,23.10
2018-10-18T01:30:05.846Z,22.67
2018-10-18T01:32:34.922Z,24.83
2018-10-18T01:35:04.465Z,23.40
2018-10-18T01:37:33.502Z,24.03
2018-10-18T01:40:02.869Z,25.63
2018-10-18T01:42:32.143Z,24.47
2018-10-18T01:45:01.302Z,27.03
2018-10-18T01:47:30.417Z,26.57
2018-10-18T01:49:59.539Z,24.67
2018-10-18T01:52:28.704Z,27.33
2018-10-18T01:54:57.806Z,25.50
2018-10-18T01:57:27.021Z,23.67
2018-10-18T01:59:56.242Z,24.73
2018-10-18T02:02:25.711Z,25.63
2018-10-18T02:04:54.966Z,26.10
2018-10-18T02:07:24.427Z,28.70
2018-10-18T02:09:53.603Z,25.50
2018-10-18T02:12:22.710Z,27.37
2018-10-18T02:14:51.797Z,25.67
2018-10-18T02:17:21.065Z,26.27
2018-10-18T02:19:50.205Z,25.70
2018-10-18T02:22:19.443Z,26.30
2018-10-18T02:24:48.612Z,25.30
2018-10-18T02:27:17.885Z,24.77
2018-10-18T02:29:47.049Z,24.23
2018-10-18T02:32:16.322Z,25.63
2018-10-18T02:34:45.577Z,25.30
2018-10-18T02:37:14.831Z,33.90
2018-10-18T02:39:44.176Z,26.63
2018-10-18T02:42:13.830Z,26.80
2018-10-18T02:44:43.082Z,27.13
2018-10-18T02:47:12.177Z,25.83
2018-10-18T02:49:41.855Z,27.17
2018-10-18T02:52:11.181Z,26.70
2018-10-18T02:54:40.482Z,27.13
2018-10-18T02:57:09.915Z,26.40
2018-10-18T02:59:39.261Z,26.77
2018-10-18T03:02:09.055Z,28.73
2018-10-18T03:04:38.461Z,29.30
2018-10-18T03:07:08.050Z,28.10
2018-10-18T03:09:37.610Z,30.03
2018-10-18T03:12:07.376Z,28.53
2018-10-18T03:14:36.615Z,28.60
2018-10-18T03:17:06.123Z,29.53
2018-10-18T03:19:35.329Z,29.87
2018-10-18T03:22:04.870Z,29.23
2018-10-18T03:24:34.098Z,28.87
2018-10-18T03:27:03.461Z,32.70
2018-10-18T03:29:32.830Z,30.53
2018-10-18T03:32:02.002Z,29.63
2018-10-18T03:34:31.213Z,30.30
2018-10-18T03:37:00.282Z,29.10
2018-10-18T03:39:29.609Z,29.50
2018-10-18T03:41:58.769Z,29.63
2018-10-18T03:44:27.866Z,29.80
2018-10-18T03:46:56.986Z,30.83
2018-10-18T03:49:26.574Z,29.50
2018-10-18T03:51:56.383Z,29.87
2018-10-18T03:54:25.612Z,32.40
2018-10-18T03:56:54.818Z,31.57
2018-10-18T03:59:23.908Z,29.50
2018-10-18T04:01:52.993Z,29.73
2018-10-18T04:04:22.045Z,30.47
2018-10-18T04:06:51.262Z,29.63
2018-10-18T04:09:20.382Z,30.23
2018-10-18T04:11:49.690Z,29.83
2018-10-18T04:14:19.161Z,29.93
2018-10-18T04:16:48.789Z,29.10
2018-10-18T04:19:18.825Z,31.53
2018-10-18T04:21:50.808Z,27.90
2018-10-18T04:24:20.082Z,29.00
2018-10-18T04:26:49.297Z,29.50
2018-10-18T04:29:18.481Z,29.97
2018-10-18T04:31:47.661Z,31.57
2018-10-18T04:34:17.019Z,29.80
2018-10-18T04:36:46.455Z,30.67
2018-10-18T04:39:15.870Z,30.17
2018-10-18T04:41:45.309Z,31.37
2018-10-18T04:44:14.530Z,30.63
2018-10-18T04:46:43.814Z,30.63
2018-10-18T04:49:13.694Z,30.77
2018-10-18T04:51:42.846Z,32.57
2018-10-18T04:54:12.228Z,32.03
2018-10-18T04:56:41.449Z,31.60
2018-10-18T04:59:10.645Z,31.73
2018-10-18T05:01:39.878Z,31.23
2018-10-18T05:04:09.046Z,31.57
2018-10-18T05:06:38.179Z,33.07
2018-10-18T05:09:08.482Z,33.03
2018-10-18T05:11:37.755Z,31.27
2018-10-18T05:14:06.969Z,32.73
2018-10-18T05:16:36.536Z,32.83
2018-10-18T05:19:06.516Z,33.10
2018-10-18T05:21:36.359Z,33.40
2018-10-18T05:24:06.318Z,31.90
2018-10-18T05:26:35.883Z,33.23
2018-10-18T05:29:05.602Z,33.37
2018-10-18T05:31:36.418Z,34.80
2018-10-18T05:34:06.070Z,33.97
2018-10-18T05:36:35.278Z,35.20
2018-10-18T05:39:06.418Z,37.30
2018-10-18T05:41:35.731Z,38.43
2018-10-18T05:44:05.421Z,34.67
2018-10-18T05:46:34.746Z,34.57
2018-10-18T05:49:04.154Z,32.30
2018-10-18T05:51:33.309Z,33.67
2018-10-18T05:54:02.555Z,34.77
2018-10-18T05:56:32.036Z,34.33
2018-10-18T05:59:01.432Z,35.37
2018-10-18T06:01:30.757Z,33.17
2018-10-18T06:04:00.109Z,34.13
2018-10-18T06:06:29.333Z,34.43
2018-10-18T06:08:58.850Z,33.47
2018-10-18T06:11:32.406Z,34.60
2018-10-18T06:14:01.993Z,33.60
2018-10-18T06:16:31.442Z,32.87
2018-10-18T06:19:00.759Z,30.53
2018-10-18T06:21:30.254Z,31.77
2018-10-18T06:23:59.462Z,32.90
2018-10-18T06:26:28.710Z,31.50
2018-10-18T06:28:58.093Z,31.90
2018-10-18T06:31:27.419Z,31.30
2018-10-18T06:33:56.838Z,30.13
2018-10-18T06:36:26.441Z,28.67
2018-10-18T06:38:55.633Z,28.87
2018-10-18T06:41:24.842Z,29.50
2018-10-18T06:43:54.355Z,28.97
2018-10-18T06:46:23.745Z,28.50
2018-10-18T06:48:53.039Z,28.67
2018-10-18T06:51:22.362Z,26.33
2018-10-18T06:53:51.635Z,28.50
2018-10-18T06:56:20.713Z,27.50
2018-10-18T06:58:50.087Z,26.83
2018-10-18T07:01:19.422Z,27.83
2018-10-18T07:03:48.618Z,27.33
2018-10-18T07:06:17.939Z,27.47
2018-10-18T07:08:47.371Z,27.73
2018-10-18T07:11:16.721Z,26.57
2018-10-18T07:13:46.069Z,27.73
2018-10-18T07:16:15.430Z,25.70
2018-10-18T07:18:44.621Z,27.33
2018-10-18T07:21:14.070Z,27.60
2018-10-18T07:23:44.620Z,27.27
2018-10-18T07:26:13.908Z,26.47
2018-10-18T07:28:43.289Z,26.30
2018-10-18T07:31:13.122Z,26.30
2018-10-18T07:33:42.470Z,27.50
2018-10-18T07:36:12.160Z,27.20
2018-10-18T07:38:41.673Z,26.73
2018-10-18T07:41:11.012Z,25.23
2018-10-18T07:43:40.494Z,28.33
2018-10-18T07:46:09.889Z,24.87
2018-10-18T07:48:39.173Z,26.60
2018-10-18T07:51:08.433Z,25.93
2018-10-18T07:53:38.357Z,24.87
2018-10-18T07:56:07.611Z,24.73
2018-10-18T07:58:37.013Z,25.53
2018-10-18T08:01:06.494Z,23.70
2018-10-18T08:03:35.601Z,24.87
2018-10-18T08:06:04.949Z,24.27
2018-10-18T08:08:34.165Z,24.30
2018-10-18T08:11:03.544Z,23.63
2018-10-18T08:13:33.017Z,23.87
2018-10-18T08:16:02.724Z,23.90
2018-10-18T08:18:32.118Z,25.33
2018-10-18T08:21:02.189Z,24.53
2018-10-18T08:23:31.822Z,25.27
2018-10-18T08:26:01.102Z,24.70
2018-10-18T08:28:30.549Z,23.93
2018-10-18T08:31:00.038Z,25.33
2018-10-18T08:33:29.362Z,25.00
2018-10-18T08:35:58.782Z,23.73
2018-10-18T08:38:28.346Z,23.17
2018-10-18T08:40:58.046Z,24.73
2018-10-18T08:43:27.282Z,23.93
2018-10-18T08:45:56.562Z,22.77
2018-10-18T08:48:25.757Z,22.60
2018-10-18T08:50:54.957Z,21.80
2018-10-18T08:53:24.255Z,24.07
2018-10-18T08:55:53.549Z,21.37
2018-10-18T08:58:22.962Z,22.50
2018-10-18T09:00:52.171Z,22.47
2018-10-18T09:03:21.507Z,20.23
2018-10-18T09:05:50.765Z,22.20
2018-10-18T09:08:19.969Z,21.40
2018-10-18T09:10:49.302Z,22.20
2018-10-18T09:13:18.891Z,20.60
2018-10-18T09:15:48.409Z,21.97
2018-10-18T09:18:17.764Z,22.33
2018-10-18T09:20:46.977Z,20.67
2018-10-18T09:23:23.171Z,20.90
2018-10-18T09:25:52.625Z,20.87
2018-10-18T09:28:25.465Z,21.73
2018-10-18T09:30:54.721Z,21.30
2018-10-18T09:33:24.614Z,21.77
2018-10-18T09:35:53.994Z,21.53
2018-10-18T09:38:23.407Z,22.20
2018-10-18T09:40:52.713Z,22.10
2018-10-18T09:43:21.910Z,21.77
2018-10-18T09:45:51.150Z,20.80
2018-10-18T09:48:20.820Z,20.73
2018-10-18T09:50:50.113Z,21.30
2018-10-18T09:53:19.438Z,21.73
2018-10-18T09:55:49.105Z,25.50
2018-10-18T09:58:18.302Z,26.93
2018-10-18T10:00:52.791Z,27.10
2018-10-18T10:03:22.370Z,24.57
2018-10-18T10:05:51.647Z,24.50
2018-10-18T10:08:20.958Z,27.37
2018-10-18T10:10:50.229Z,24.73
2018-10-18T10:13:19.527Z,22.63
2018-10-18T10:15:49.309Z,19.73
2018-10-18T10:18:18.712Z,19.33
2018-10-18T10:20:48.216Z,19.90
2018-10-18T10:23:17.750Z,19.87
2018-10-18T10:25:46.933Z,22.67
2018-10-18T10:28:16.625Z,21.30
2018-10-18T10:30:46.074Z,19.93
2018-10-18T10:33:15.532Z,18.87
2018-10-18T10:35:46.123Z,18.47
2018-10-18T10:38:15.485Z,18.40
2018-10-18T10:40:44.688Z,18.33
2018-10-18T10:43:13.905Z,18.13
2018-10-18T10:45:43.188Z,17.33
2018-10-18T10:48:12.476Z,17.80
2018-10-18T10:50:41.681Z,17.20
2018-10-18T10:53:10.901Z,16.87
2018-10-18T10:55:40.082Z,15.03
2018-10-18T10:58:09.780Z,14.90
2018-10-18T11:01:13.261Z,14.90
2018-10-18T11:03:43.061Z,13.93
2018-10-18T11:06:12.801Z,12.97
2018-10-18T11:08:42.225Z,12.70
2018-10-18T11:11:12.190Z,12.33
2018-10-18T11:13:41.626Z,12.50
2018-10-18T11:16:11.050Z,13.70
2018-10-18T11:18:40.906Z,12.13
2018-10-18T11:21:11.888Z,11.63
2018-10-18T11:23:41.309Z,11.83
2018-10-18T11:26:10.790Z,11.33
2018-10-18T11:28:40.012Z,12.80
2018-10-18T11:31:09.289Z,12.60
2018-10-18T11:33:38.479Z,11.83
2018-10-18T11:36:07.930Z,12.40
2018-10-18T11:38:37.301Z,11.83
2018-10-18T11:41:06.802Z,11.87
2018-10-18T11:43:36.281Z,11.03
2018-10-18T11:46:06.214Z,10.47
2018-10-18T11:48:35.494Z,9.40
2018-10-18T11:51:04.694Z,9.30
2018-10-18T11:53:33.914Z,7.70
2018-10-18T11:56:03.152Z,7.17
2018-10-18T11:58:32.506Z,6.00
2018-10-18T12:01:01.708Z,6.27
2018-10-18T12:03:31.102Z,6.67
2018-10-18T12:06:00.506Z,6.80
2018-10-18T12:08:29.935Z,6.97
2018-10-18T12:10:59.222Z,6.90
2018-10-18T12:13:28.502Z,6.77
2018-10-18T12:15:58.113Z,7.33
2018-10-18T12:18:27.416Z,5.93
2018-10-18T12:20:56.811Z,6.27
2018-10-18T12:23:28.134Z,5.30
2018-10-18T12:25:57.354Z,5.23
2018-10-18T12:28:26.757Z,4.90
2018-10-18T12:30:56.101Z,4.73
2018-10-18T12:33:25.437Z,5.43
2018-10-18T12:35:54.751Z,3.87
2018-10-18T12:38:23.966Z,4.60
2018-10-18T12:40:53.383Z,4.53
2018-10-18T12:43:22.649Z,4.70
2018-10-18T12:45:51.843Z,4.47
2018-10-18T12:48:21.628Z,4.23
2018-10-18T12:50:50.961Z,4.73
2018-10-18T12:53:20.266Z,4.30
2018-10-18T12:55:49.457Z,3.40
2018-10-18T12:58:18.685Z,4.13
2018-10-18T13:00:47.973Z,3.80
2018-10-18T13:03:17.360Z,3.50
2018-10-18T13:05:46.657Z,4.20
2018-10-18T13:08:15.967Z,3.57
2018-10-18T13:10:45.481Z,4.53
2018-10-18T13:13:14.874Z,4.57
2018-10-18T13:15:44.122Z,4.27
2018-10-18T13:18:13.781Z,4.50
2018-10-18T13:20:43.450Z,4.30
2018-10-18T13:23:13.107Z,3.83
2018-10-18T13:25:42.368Z,3.70
2018-10-18T13:28:11.811Z,4.00
2018-10-18T13:30:41.257Z,4.23
2018-10-18T13:33:10.582Z,3.70
2018-10-18T13:35:39.767Z,4.37
2018-10-18T13:38:09.186Z,4.10
2018-10-18T13:40:38.447Z,5.03
2018-10-18T13:43:07.667Z,5.10
2018-10-18T13:45:36.898Z,4.83
2018-10-18T13:48:06.382Z,5.60
2018-10-18T13:50:35.838Z,5.00
2018-10-18T13:53:05.397Z,5.50
2018-10-18T13:55:34.953Z,4.57
2018-10-18T13:58:04.351Z,4.50
2018-10-18T14:00:33.972Z,4.27
2018-10-18T14:03:03.413Z,3.67
2018-10-18T14:05:33.014Z,4.00
2018-10-18T14:08:02.359Z,3.80
2018-10-18T14:10:31.726Z,2.90
2018-10-18T14:13:01.123Z,3.17
2018-10-18T14:15:30.826Z,3.17
2018-10-18T14:18:00.488Z,4.00
2018-10-18T14:20:30.051Z,3.50
2018-10-18T14:23:00.797Z,3.47
2018-10-18T14:25:30.258Z,3.20
2018-10-18T14:27:59.234Z,3.13
2018-10-18T14:30:29.064Z,3.17
2018-10-18T14:32:58.232Z,3.10
2018-10-18T14:35:27.483Z,2.60
2018-10-18T14:37:56.849Z,3.63
2018-10-18T14:40:25.841Z,2.33
2018-10-18T14:42:54.842Z,2.70
2018-10-18T14:45:23.826Z,2.20
2018-10-18T14:47:53.444Z,2.60
2018-10-18T14:50:22.637Z,2.60
2018-10-18T14:52:51.534Z,2.50
2018-10-18T14:55:21.207Z,2.30
2018-10-18T14:57:50.266Z,2.37
2018-10-18T15:00:19.313Z,1.90
2018-10-18T15:02:48.954Z,2.50
2018-10-18T15:05:18.164Z,2.20
2018-10-18T15:07:47.465Z,1.97
2018-10-18T15:10:17.225Z,2.00
2018-10-18T15:12:46.911Z,2.17
2018-10-18T15:15:16.429Z,2.03
2018-10-18T15:17:45.758Z,2.33
2018-10-18T15:20:15.133Z,2.40
2018-10-18T15:22:44.442Z,1.77
2018-10-18T15:25:14.193Z,2.10
2018-10-18T15:27:44.102Z,1.80
2018-10-18T15:30:13.970Z,1.70
2018-10-18T15:32:43.705Z,2.07
2018-10-18T15:35:13.173Z,1.53
2018-10-18T15:37:42.878Z,1.77
2018-10-18T15:40:12.122Z,1.80
2018-10-18T15:42:41.623Z,1.67
2018-10-18T15:45:11.236Z,3.40
2018-10-18T15:47:40.759Z,3.00
2018-10-18T15:50:10.885Z,1.50
2018-10-18T15:52:40.212Z,1.33
2018-10-18T15:55:09.919Z,1.20
2018-10-18T15:57:39.842Z,1.30
2018-10-18T16:00:11.054Z,1.40
2018-10-18T16:02:41.194Z,1.60
2018-10-18T16:05:10.986Z,1.53
2018-10-18T16:07:40.271Z,1.63
2018-10-18T16:10:10.061Z,1.60
2018-10-18T16:12:39.684Z,1.37
2018-10-18T16:15:10.342Z,1.20
2018-10-18T16:17:39.954Z,1.40
2018-10-18T16:20:10.885Z,1.13
2018-10-18T16:22:40.745Z,1.20
2018-10-18T16:25:12.083Z,1.13
2018-10-18T16:27:42.235Z,1.60
2018-10-18T16:30:11.917Z,1.20
2018-10-18T16:32:41.433Z,1.10
2018-10-18T16:35:10.671Z,1.03
2018-10-18T16:37:40.155Z,1.17
2018-10-18T16:40:10.311Z,1.30
2018-10-18T16:42:40.227Z,1.20
2018-10-18T16:45:11.941Z,1.00
2018-10-18T16:47:41.651Z,1.10
2018-10-18T16:50:11.786Z,1.17
2018-10-18T16:52:41.681Z,1.47
2018-10-18T16:55:11.194Z,0.97
2018-10-18T16:57:40.579Z,1.30
2018-10-18T17:00:11.548Z,1.90
2018-10-18T17:02:41.125Z,1.00
2018-10-18T17:05:11.325Z,0.87
2018-10-18T17:07:40.788Z,1.40
2018-10-18T17:10:10.316Z,1.13
2018-10-18T17:12:40.483Z,1.13
2018-10-18T17:15:10.315Z,1.90
2018-10-18T17:17:40.487Z,1.30
2018-10-18T17:20:10.164Z,1.57
2018-10-18T17:22:40.162Z,1.33
2018-10-18T17:25:09.433Z,1.23
2018-10-18T17:27:39.310Z,0.93
2018-10-18T17:30:08.856Z,1.17
2018-10-18T17:32:38.863Z,1.50
2018-10-18T17:35:08.553Z,0.63
2018-10-18T17:37:38.840Z,1.30
2018-10-18T17:40:08.859Z,1.47
2018-10-18T17:42:38.919Z,0.80
2018-10-18T17:45:09.770Z,0.73
2018-10-18T17:47:39.498Z,0.77
2018-10-18T17:50:09.815Z,1.17
2018-10-18T17:52:39.423Z,0.77
2018-10-18T17:55:09.386Z,0.90
2018-10-18T17:57:39.281Z,1.07
2018-10-18T18:00:11.502Z,1.23
2018-10-18T18:02:41.093Z,1.10
2018-10-18T18:05:11.949Z,0.93
2018-10-18T18:07:41.566Z,1.20
2018-10-18T18:10:13.497Z,1.10
2018-10-18T18:12:43.233Z,1.00
2018-10-18T18:15:12.905Z,1.27
2018-10-18T18:17:42.498Z,1.10
2018-10-18T18:20:12.750Z,0.87
2018-10-18T18:22:43.122Z,1.33
2018-10-18T18:25:13.399Z,0.73
2018-10-18T18:27:43.212Z,0.90
2018-10-18T18:30:13.945Z,0.80
2018-10-18T18:32:43.643Z,1.20
2018-10-18T18:35:13.518Z,1.10
2018-10-18T18:37:43.304Z,1.00
2018-10-18T18:40:12.924Z,1.33
2018-10-18T18:42:42.710Z,1.20
2018-10-18T18:45:17.550Z,1.07
2018-10-18T18:47:47.506Z,1.27
2018-10-18T18:50:17.588Z,1.00
2018-10-18T18:52:47.554Z,0.97
2018-10-18T18:55:17.116Z,0.80
2018-10-18T18:57:46.670Z,1.03
2018-10-18T19:00:16.755Z,0.77
2018-10-18T19:02:46.534Z,1.10
2018-10-18T19:05:16.655Z,1.00
2018-10-18T19:07:45.909Z,0.70
2018-10-18T19:10:15.398Z,1.00
2018-10-18T19:12:45.102Z,0.73
2018-10-18T19:15:15.005Z,0.93
2018-10-18T19:17:44.951Z,0.93
2018-10-18T19:20:15.109Z,0.93
2018-10-18T19:22:44.989Z,1.13
2018-10-18T19:25:15.042Z,0.87
2018-10-18T19:27:45.111Z,0.70
2018-10-18T19:30:14.441Z,1.00
2018-10-18T19:32:44.565Z,0.77
2018-10-18T19:35:14.681Z,0.97
2018-10-18T19:37:43.846Z,0.80
2018-10-18T19:40:13.037Z,0.70
2018-10-18T19:42:43.415Z,0.70
2018-10-18T19:45:13.205Z,0.80
2018-10-18T19:47:42.781Z,1.10
2018-10-18T19:50:12.280Z,0.77
2018-10-18T19:52:42.172Z,0.60
2018-10-18T19:55:11.766Z,0.73
2018-10-18T19:57:41.226Z,0.70
2018-10-18T20:00:11.238Z,0.73
2018-10-18T20:02:40.689Z,0.80
2018-10-18T20:05:10.275Z,1.10
2018-10-18T20:07:39.583Z,0.63
2018-10-18T20:10:09.510Z,0.83
2018-10-18T20:12:39.373Z,0.93
2018-10-18T20:15:09.173Z,0.80
2018-10-18T20:17:39.088Z,0.70
2018-10-18T20:20:10.649Z,0.80
2018-10-18T20:22:40.817Z,0.90
2018-10-18T20:25:11.004Z,0.53
2018-10-18T20:27:40.694Z,0.80
2018-10-18T20:30:13.255Z,0.90
2018-10-18T20:32:43.546Z,0.80
2018-10-18T20:35:12.781Z,0.80
2018-10-18T20:37:42.278Z,0.80
2018-10-18T20:40:13.653Z,0.80
2018-10-18T20:42:43.444Z,0.73
2018-10-18T20:45:18.366Z,0.90
2018-10-18T20:47:47.815Z,0.60
2018-10-18T20:50:17.053Z,0.80
2018-10-18T20:52:46.521Z,1.00
2018-10-18T20:55:15.676Z,1.20
2018-10-18T20:57:44.831Z,0.63
2018-10-18T21:00:14.008Z,1.03
2018-10-18T21:02:43.371Z,1.20
2018-10-18T21:05:13.070Z,0.80
2018-10-18T21:07:42.271Z,0.90
2018-10-18T21:10:11.573Z,0.80
2018-10-18T21:12:40.749Z,1.40
2018-10-18T21:15:10.034Z,0.93
2018-10-18T21:17:39.423Z,0.90
2018-10-18T21:20:08.932Z,0.80
2018-10-18T21:22:38.602Z,1.00
2018-10-18T21:25:08.558Z,0.80
2018-10-18T21:27:37.826Z,0.90
2018-10-18T21:30:08.075Z,0.70
2018-10-18T21:32:37.973Z,1.07
2018-10-18T21:35:07.399Z,0.93
2018-10-18T21:37:36.657Z,0.63
2018-10-18T21:40:05.914Z,0.43
2018-10-18T21:42:35.397Z,0.80
2018-10-18T21:45:05.153Z,0.90
2018-10-18T21:47:34.542Z,0.70
2018-10-18T21:50:03.809Z,0.73
2018-10-18T21:52:33.458Z,0.80
2018-10-18T21:55:02.546Z,0.83
2018-10-18T21:57:31.740Z,0.70
2018-10-18T22:00:01.149Z,0.93
2018-10-18T22:02:30.993Z,0.60
2018-10-18T22:05:00.136Z,0.60
2018-10-18T22:07:29.637Z,1.03
2018-10-18T22:09:59.053Z,0.60
2018-10-18T22:12:28.332Z,1.43
2018-10-18T22:14:57.701Z,0.60
2018-10-18T22:17:27.271Z,0.73
2018-10-18T22:19:56.422Z,0.77
2018-10-18T22:22:25.962Z,0.90
2018-10-18T22:24:55.366Z,0.73
2018-10-18T22:27:24.665Z,0.80
2018-10-18T22:29:53.969Z,0.80
2018-10-18T22:32:23.292Z,0.40
2018-10-18T22:34:52.554Z,0.60
2018-10-18T22:37:21.732Z,0.97
2018-10-18T22:39:51.149Z,0.60
2018-10-18T22:42:20.443Z,0.73
2018-10-18T22:44:49.716Z,0.80
2018-10-18T22:47:18.922Z,0.80
2018-10-18T22:49:48.254Z,0.80
2018-10-18T22:52:18.338Z,0.80
2018-10-18T22:54:47.671Z,0.80
2018-10-18T22:57:16.915Z,1.00
2018-10-18T22:59:46.065Z,0.73
2018-10-18T23:02:15.570Z,0.93
2018-10-18T23:04:44.913Z,0.63
2018-10-18T23:07:14.281Z,0.73
2018-10-18T23:09:44.058Z,1.03
2018-10-18T23:12:13.486Z,0.60
2018-10-18T23:14:42.977Z,0.80
2018-10-18T23:17:13.048Z,0.80
2018-10-18T23:19:42.297Z,0.90
2018-10-18T23:22:11.513Z,0.80
2018-10-18T23:24:41.049Z,0.90
2018-10-18T23:27:10.412Z,1.00
2018-10-18T23:29:40.375Z,1.07
2018-10-18T23:32:11.169Z,0.77
2018-10-18T23:34:40.456Z,0.57
2018-10-18T23:37:09.753Z,1.03
2018-10-18T23:39:38.838Z,0.83
2018-10-18T23:42:07.905Z,1.00
2018-10-18T23:44:37.042Z,0.50
2018-10-18T23:47:06.785Z,0.73
2018-10-18T23:49:35.898Z,0.60
2018-10-18T23:52:05.301Z,0.60
2018-10-18T23:54:34.537Z,0.70
2018-10-18T23:57:03.863Z,0.73
2018-10-18T23:59:33.241Z,0.70
